KBWG/BWG METAR and TAF weather

Enter ICAO airport designator
Station Type Date Time Source
KBWG METAR 2019/04/21 21:53 UTC NOAA

KBWG 212153Z AUTO 00000KT 10SM CLR 22/03 A3011 RMK AO2 SLP193 T02220028


Station Type Date Time Source
KBWG Decoded METAR 2019/04/21 21:53 UTC NOAA

BOWLING GREEN-WARREN CO RGNL, KY, United States (KBWG) 36-58N 086-25W 161M
Apr 21, 2019 - 05:53 PM EDT / 2019.04.21 2153 UTC
Wind: Calm:0
Visibility: 10 mile(s):0
Sky conditions: clear
Temperature: 72.0 F (22.2 C)
Dew Point: 37.0 F (2.8 C)
Relative Humidity: 27%
Pressure (altimeter): 30.11 in. Hg (1019 hPa)
ob: KBWG 212153Z AUTO 00000KT 10SM CLR 22/03 A3011 RMK AO2 SLP193 T02220028
cycle: 22

Station Type Date Time Source
KBWG TAF 2019/04/21 18:22 UTC NOAA

TAF KBWG 211720Z 2118/2218 VRB03KT P6SM SKC
FM221500 18007KT P6SM FEW025 SCT250

Example: see airport list